createdAt,value
2022-12-31T00:01:08.715Z,100142.72
2022-12-31T00:04:30.453Z,100137.56
2022-12-31T00:07:53.693Z,100115.38
2022-12-31T00:11:16.698Z,100135.88
2022-12-31T00:14:38.689Z,100136.78
2022-12-31T00:18:01.785Z,100143.72
2022-12-31T00:21:24.401Z,100146.28
2022-12-31T00:24:48.026Z,100139.38
2022-12-31T00:28:09.943Z,100146.31
2022-12-31T00:31:33.158Z,100140.34
2022-12-31T00:34:55.290Z,100141.13
2022-12-31T00:38:17.068Z,100144.56
2022-12-31T00:41:40.089Z,100137.69
2022-12-31T00:45:04.958Z,100129.19
2022-12-31T00:48:27.025Z,100143.78
2022-12-31T00:51:51.411Z,100148.88
2022-12-31T00:55:13.000Z,100158.38
2022-12-31T00:58:36.744Z,100155.09
2022-12-31T01:02:01.445Z,100158.38
2022-12-31T01:05:23.458Z,100161.81
2022-12-31T01:08:45.956Z,100160.91
2022-12-31T01:12:08.354Z,100154.88
2022-12-31T01:15:34.531Z,100143.00
2022-12-31T01:18:59.521Z,100144.69
2022-12-31T01:22:21.314Z,100135.13
2022-12-31T01:25:43.199Z,100136.03
2022-12-31T01:29:06.156Z,100136.09
2022-12-31T01:32:29.437Z,100130.09
2022-12-31T01:35:51.793Z,100128.44
2022-12-31T01:39:14.157Z,100137.03
2022-12-31T01:42:36.099Z,100142.19
2022-12-31T01:45:58.070Z,100125.22
2022-12-31T01:49:24.076Z,100132.00
2022-12-31T01:52:52.539Z,100138.84
2022-12-31T01:56:15.329Z,100129.41
2022-12-31T01:59:37.633Z,100129.41
2022-12-31T02:03:00.535Z,100126.00
2022-12-31T02:06:27.883Z,100125.16
2022-12-31T02:09:50.068Z,100113.31
2022-12-31T02:13:12.383Z,100120.00
2022-12-31T02:16:43.351Z,100113.22
2022-12-31T02:20:26.167Z,100083.44
2022-12-31T02:24:15.418Z,100096.06
2022-12-31T02:27:50.786Z,100115.81
2022-12-31T02:31:18.406Z,100112.44
2022-12-31T02:34:48.670Z,100108.13
2022-12-31T02:38:15.504Z,100102.28
2022-12-31T02:41:52.438Z,100099.69
2022-12-31T02:45:21.322Z,100093.75
2022-12-31T02:48:52.538Z,100095.44
2022-12-31T02:52:22.886Z,100084.34
2022-12-31T02:55:52.999Z,100087.00
2022-12-31T02:59:38.186Z,100087.06
2022-12-31T03:03:02.239Z,100067.53
2022-12-31T03:06:25.610Z,100082.88
2022-12-31T03:09:50.015Z,100082.94
2022-12-31T03:13:11.609Z,100080.34
2022-12-31T03:16:34.555Z,100080.38
2022-12-31T03:20:14.119Z,100073.59
2022-12-31T03:23:40.321Z,100073.72
2022-12-31T03:27:04.191Z,100068.59
2022-12-31T03:30:26.835Z,100060.97
2022-12-31T03:33:48.771Z,100070.38
2022-12-31T03:37:10.820Z,100054.19
2022-12-31T03:40:38.073Z,100047.44
2022-12-31T03:44:02.804Z,100047.44
2022-12-31T03:47:24.650Z,100042.34
2022-12-31T03:50:46.792Z,100026.03
2022-12-31T03:54:08.528Z,100020.81
2022-12-31T03:57:31.839Z,100005.50
2022-12-31T04:00:54.196Z,100000.22
2022-12-31T04:04:16.074Z,99964.47
2022-12-31T04:07:37.919Z,99979.56
2022-12-31T04:10:59.899Z,99963.31
2022-12-31T04:14:23.013Z,99956.38
2022-12-31T04:17:45.183Z,99951.25
2022-12-31T04:21:07.049Z,99944.34
2022-12-31T04:24:29.174Z,99919.63
2022-12-31T04:27:50.928Z,99915.22
2022-12-31T04:31:14.069Z,99915.09
2022-12-31T04:34:36.163Z,99911.66
2022-12-31T04:37:57.800Z,99892.00
2022-12-31T04:41:20.831Z,99894.50
2022-12-31T04:44:42.865Z,99885.88
2022-12-31T04:48:06.717Z,99868.78
2022-12-31T04:51:29.884Z,99873.03
2022-12-31T04:54:51.751Z,99831.41
2022-12-31T04:58:14.025Z,99854.13
2022-12-31T05:01:36.867Z,99825.31
2022-12-31T05:04:59.899Z,99847.25
2022-12-31T05:08:22.185Z,99828.50
2022-12-31T05:11:44.479Z,99804.28
2022-12-31T05:15:07.745Z,99794.81
2022-12-31T05:18:30.356Z,99780.25
2022-12-31T05:22:07.452Z,99782.00
2022-12-31T05:25:29.331Z,99777.81
2022-12-31T05:28:55.401Z,99794.03
2022-12-31T05:32:17.161Z,99779.41
2022-12-31T05:35:39.068Z,99770.81
2022-12-31T05:39:02.236Z,99759.59
2022-12-31T05:42:24.570Z,99751.03
2022-12-31T05:45:46.335Z,99736.47
2022-12-31T05:49:08.042Z,99740.72
2022-12-31T05:52:29.948Z,99744.09
2022-12-31T05:55:53.133Z,99738.06
2022-12-31T05:59:14.597Z,99723.50
2022-12-31T06:02:36.123Z,99719.22
2022-12-31T06:05:57.826Z,99715.84
2022-12-31T06:09:21.916Z,99684.97
2022-12-31T06:12:45.167Z,99683.16
2022-12-31T06:16:07.999Z,99696.94
2022-12-31T06:19:29.703Z,99691.72
2022-12-31T06:22:51.503Z,99672.75
2022-12-31T06:26:13.446Z,99670.16
2022-12-31T06:29:40.885Z,99680.31
2022-12-31T06:33:02.825Z,99658.06
2022-12-31T06:36:24.851Z,99662.16
2022-12-31T06:39:46.879Z,99644.88
2022-12-31T06:43:08.658Z,99653.38
2022-12-31T06:46:32.065Z,99656.72
2022-12-31T06:49:54.219Z,99657.47
2022-12-31T06:53:18.880Z,99647.16
2022-12-31T06:56:41.619Z,99643.72
2022-12-31T07:00:04.245Z,99642.72
2022-12-31T07:03:37.845Z,99648.63
2022-12-31T07:07:06.649Z,99644.28
2022-12-31T07:10:42.429Z,99640.78
2022-12-31T07:14:20.289Z,99613.41
2022-12-31T07:17:53.502Z,99603.72
2022-12-31T07:21:20.558Z,99603.66
2022-12-31T07:24:42.746Z,99600.28
2022-12-31T07:28:17.557Z,99605.22
2022-12-31T07:31:54.573Z,99610.25
2022-12-31T07:35:23.296Z,99589.53
2022-12-31T07:38:56.854Z,99606.66
2022-12-31T07:42:25.523Z,99579.31
2022-12-31T07:45:53.822Z,99607.28
2022-12-31T07:49:16.595Z,99602.06
2022-12-31T07:52:39.483Z,99580.47
2022-12-31T07:56:05.155Z,99582.03
2022-12-31T07:59:42.716Z,99567.44
2022-12-31T08:03:18.187Z,99558.59
2022-12-31T08:06:47.849Z,99561.16
2022-12-31T08:10:18.183Z,99561.19
2022-12-31T08:13:44.008Z,99554.25
2022-12-31T08:17:06.292Z,99537.00
2022-12-31T08:20:28.782Z,99538.94
2022-12-31T08:24:02.294Z,99546.47
2022-12-31T08:27:37.177Z,99539.56
2022-12-31T08:31:05.410Z,99525.94
2022-12-31T08:34:34.213Z,99532.66
2022-12-31T08:38:03.731Z,99530.78
2022-12-31T08:41:30.550Z,99516.13
2022-12-31T08:45:02.109Z,99523.13
2022-12-31T08:48:34.148Z,99532.41
2022-12-31T08:51:56.665Z,99532.41
2022-12-31T08:55:21.218Z,99517.84
2022-12-31T08:58:51.492Z,99520.47
2022-12-31T09:02:48.021Z,99518.50
2022-12-31T09:06:18.350Z,99515.16
2022-12-31T09:09:54.072Z,99523.78
2022-12-31T09:13:25.205Z,99519.59
2022-12-31T09:16:55.200Z,99533.38
2022-12-31T09:20:22.488Z,99546.50
2022-12-31T09:23:46.233Z,99536.34
2022-12-31T09:27:15.269Z,99544.03
2022-12-31T09:30:47.247Z,99536.44
2022-12-31T09:34:17.915Z,99533.16
2022-12-31T09:37:46.705Z,99533.09
2022-12-31T09:41:16.579Z,99510.81
2022-12-31T09:45:11.039Z,99517.66
2022-12-31T09:49:03.663Z,99512.53
2022-12-31T09:52:37.960Z,99497.00
2022-12-31T09:56:06.891Z,99474.88
2022-12-31T09:59:36.640Z,99480.66
2022-12-31T10:03:18.255Z,99466.84
2022-12-31T10:06:50.592Z,99454.94
2022-12-31T10:10:19.856Z,99454.13
2022-12-31T10:13:57.132Z,99448.06
2022-12-31T10:17:32.391Z,99434.50
2022-12-31T10:21:16.844Z,99436.06
2022-12-31T10:25:02.112Z,99437.75
2022-12-31T10:28:32.894Z,99432.34
2022-12-31T10:32:15.684Z,99435.72
2022-12-31T10:35:44.517Z,99433.19
2022-12-31T10:39:16.454Z,99428.94
2022-12-31T10:43:05.681Z,99432.22
2022-12-31T10:47:01.455Z,99424.53
2022-12-31T10:50:50.300Z,99431.38
2022-12-31T10:54:45.251Z,99431.44
2022-12-31T10:58:41.577Z,99449.50
2022-12-31T11:02:14.551Z,99441.66
2022-12-31T11:06:06.624Z,99434.00
2022-12-31T11:09:54.496Z,99434.00
2022-12-31T11:13:47.299Z,99437.28
2022-12-31T11:17:26.477Z,99438.22
2022-12-31T11:21:07.033Z,99447.72
2022-12-31T11:24:43.664Z,99441.00
2022-12-31T11:28:28.520Z,99465.84
2022-12-31T11:32:07.984Z,99453.91
2022-12-31T11:35:51.452Z,99462.41
2022-12-31T11:39:41.152Z,99481.34
2022-12-31T11:43:12.281Z,99483.97
2022-12-31T11:47:05.867Z,99471.91
2022-12-31T11:50:36.551Z,99477.81
2022-12-31T11:54:41.588Z,99461.66
2022-12-31T11:58:13.448Z,99468.31
2022-12-31T12:01:45.203Z,99468.97
2022-12-31T12:05:11.246Z,99463.84
2022-12-31T12:08:35.101Z,99456.91
2022-12-31T12:12:01.222Z,99455.31
2022-12-31T12:15:26.031Z,99445.84
2022-12-31T12:18:50.094Z,99449.88
2022-12-31T12:22:15.754Z,99448.94
2022-12-31T12:25:40.464Z,99432.50
2022-12-31T12:29:11.267Z,99441.88
2022-12-31T12:32:32.982Z,99441.88
2022-12-31T12:35:54.796Z,99428.91
2022-12-31T12:39:23.267Z,99428.88
2022-12-31T12:42:52.195Z,99440.75
2022-12-31T12:46:22.404Z,99439.03
2022-12-31T12:49:47.793Z,99435.53
2022-12-31T12:53:21.680Z,99432.19
2022-12-31T12:56:53.334Z,99439.84
2022-12-31T13:00:20.257Z,99446.72
2022-12-31T13:04:33.545Z,99436.28
2022-12-31T13:07:58.399Z,99426.78
2022-12-31T13:11:31.956Z,99428.44
2022-12-31T13:15:03.586Z,99423.28
2022-12-31T13:18:40.268Z,99407.97
2022-12-31T13:22:09.602Z,99418.13
2022-12-31T13:25:39.700Z,99404.47
2022-12-31T13:29:06.600Z,99412.28
2022-12-31T13:32:39.915Z,99409.47
2022-12-31T13:36:05.128Z,99408.69
2022-12-31T13:39:30.863Z,99426.69
2022-12-31T13:42:59.622Z,99411.09
2022-12-31T13:46:29.961Z,99394.84
2022-12-31T13:49:59.231Z,99406.84
2022-12-31T13:53:27.490Z,99412.81
2022-12-31T13:56:50.961Z,99399.09
2022-12-31T14:00:21.668Z,99406.66
2022-12-31T14:03:52.127Z,99409.22
2022-12-31T14:07:19.627Z,99393.97
2022-12-31T14:10:49.534Z,99419.47
2022-12-31T14:14:25.996Z,99422.84
2022-12-31T14:17:52.295Z,99426.34
2022-12-31T14:21:19.951Z,99424.59
2022-12-31T14:24:46.928Z,99427.97
2022-12-31T14:28:16.503Z,99412.50
2022-12-31T14:31:58.155Z,99411.53
2022-12-31T14:35:36.305Z,99389.34
2022-12-31T14:39:16.695Z,99406.28
2022-12-31T14:42:51.683Z,99411.31
2022-12-31T14:46:21.683Z,99420.50
2022-12-31T14:49:54.465Z,99405.94
2022-12-31T14:53:23.073Z,99400.66
2022-12-31T14:56:46.711Z,99381.72
2022-12-31T15:03:45.050Z,99385.03
2022-12-31T15:07:17.963Z,99385.94
2022-12-31T15:10:49.391Z,99379.75
2022-12-31T15:14:49.430Z,99377.34
2022-12-31T15:18:30.278Z,99372.72
2022-12-31T15:22:04.497Z,99360.81
2022-12-31T15:25:33.845Z,99365.75
2022-12-31T15:29:01.105Z,99333.63
2022-12-31T15:32:32.947Z,99366.72
2022-12-31T15:35:57.656Z,99361.25
2022-12-31T15:39:41.185Z,99357.88
2022-12-31T15:43:13.957Z,99364.59
2022-12-31T15:46:42.390Z,99367.16
2022-12-31T15:50:07.674Z,99352.41
2022-12-31T15:53:34.800Z,99347.16
2022-12-31T15:57:01.026Z,99341.88
2022-12-31T16:00:26.244Z,99311.34
2022-12-31T16:03:53.082Z,99317.81
2022-12-31T16:07:15.459Z,99318.56
2022-12-31T16:10:37.660Z,99313.31
2022-12-31T16:14:01.192Z,99313.31
2022-12-31T16:17:29.145Z,99309.81
2022-12-31T16:20:52.055Z,99299.34
2022-12-31T16:24:29.229Z,99295.09
2022-12-31T16:27:52.121Z,99296.63
2022-12-31T16:31:17.565Z,99301.75
2022-12-31T16:34:39.672Z,99299.88
2022-12-31T16:38:12.745Z,99290.31
2022-12-31T16:41:44.493Z,99298.00
2022-12-31T16:45:28.975Z,99302.59
2022-12-31T16:48:57.604Z,99304.88
2022-12-31T16:52:28.503Z,99303.06
2022-12-31T16:55:57.191Z,99303.75
2022-12-31T16:59:26.422Z,99301.25
2022-12-31T17:03:01.728Z,99296.91
2022-12-31T17:06:25.857Z,99293.50
2022-12-31T17:09:47.676Z,99280.59
2022-12-31T17:13:27.052Z,99275.44
2022-12-31T17:17:03.294Z,99259.84
2022-12-31T17:20:28.943Z,99256.31
2022-12-31T17:24:01.690Z,99252.03
2022-12-31T17:27:23.623Z,99253.63
2022-12-31T17:30:45.794Z,99256.97
2022-12-31T17:34:30.928Z,99256.97
2022-12-31T17:37:52.928Z,99267.94
2022-12-31T17:41:25.942Z,99267.06
2022-12-31T17:44:47.897Z,99274.75
2022-12-31T17:48:13.379Z,99270.47
2022-12-31T17:51:35.359Z,99266.94
2022-12-31T17:54:57.822Z,99261.75
2022-12-31T17:58:29.650Z,99274.47
2022-12-31T18:01:51.980Z,99270.97
2022-12-31T18:05:19.523Z,99270.00
2022-12-31T18:08:41.485Z,99259.75
2022-12-31T18:12:05.257Z,99265.66
2022-12-31T18:15:28.648Z,99257.28
2022-12-31T18:18:51.017Z,99252.94
2022-12-31T18:22:17.214Z,99262.13
2022-12-31T18:29:02.991Z,99253.47
2022-12-31T18:32:28.006Z,99227.59
2022-12-31T18:39:32.615Z,99214.63
2022-12-31T18:42:56.388Z,99211.97
2022-12-31T18:46:24.371Z,99200.78
2022-12-31T18:49:48.788Z,99206.66
2022-12-31T18:53:19.214Z,99210.16
2022-12-31T18:56:48.332Z,99203.28
2022-12-31T19:00:13.581Z,99197.28
2022-12-31T19:03:35.790Z,99181.81
2022-12-31T19:07:00.971Z,99173.22
2022-12-31T19:10:23.267Z,99182.53
2022-12-31T19:13:45.215Z,99184.19
2022-12-31T19:20:28.979Z,99173.00
2022-12-31T19:23:55.538Z,99172.97
2022-12-31T19:27:17.555Z,99168.66
2022-12-31T19:30:39.743Z,99177.91
2022-12-31T19:34:01.640Z,99164.28
2022-12-31T19:37:23.606Z,99161.47
2022-12-31T19:40:47.760Z,99152.84
2022-12-31T19:44:15.236Z,99144.34
2022-12-31T19:47:36.880Z,99145.03
2022-12-31T19:50:58.838Z,99150.13
2022-12-31T19:54:20.661Z,99157.00
2022-12-31T19:57:44.096Z,99159.47
2022-12-31T20:01:06.068Z,99168.13
2022-12-31T20:04:28.087Z,99170.56
2022-12-31T20:07:50.081Z,99174.91
2022-12-31T20:11:14.292Z,99151.56
2022-12-31T20:14:37.796Z,99154.00
2022-12-31T20:17:59.614Z,99157.34
2022-12-31T20:21:25.713Z,99163.66
2022-12-31T20:24:47.722Z,99176.34
2022-12-31T20:28:09.688Z,99168.63
2022-12-31T20:31:33.158Z,99173.66
2022-12-31T20:34:55.303Z,99170.28
2022-12-31T20:38:17.313Z,99164.63
2022-12-31T20:41:39.313Z,99178.13
2022-12-31T20:45:01.173Z,99143.44
2022-12-31T20:48:24.527Z,99161.69
2022-12-31T20:51:51.951Z,99153.16
2022-12-31T20:55:15.337Z,99163.25
2022-12-31T20:58:38.060Z,99170.88
2022-12-31T21:05:49.900Z,99157.00
2022-12-31T21:09:12.204Z,99151.88
2022-12-31T21:12:53.215Z,99144.97
2022-12-31T21:16:15.315Z,99142.38
2022-12-31T21:19:36.945Z,99140.78
2022-12-31T21:23:00.399Z,99152.81
2022-12-31T21:26:22.300Z,99155.38
2022-12-31T21:30:16.317Z,99160.66
2022-12-31T21:33:26.434Z,99162.25
2022-12-31T21:36:48.408Z,99152.75
2022-12-31T21:40:13.092Z,99145.72
2022-12-31T21:43:35.408Z,99144.84
2022-12-31T21:47:41.053Z,99145.66
2022-12-31T21:51:08.558Z,99146.50
2022-12-31T21:54:48.128Z,99133.56
2022-12-31T21:58:28.115Z,99137.81
2022-12-31T22:02:08.175Z,99143.91
2022-12-31T22:05:30.221Z,99151.69
2022-12-31T22:08:54.095Z,99150.00
2022-12-31T22:12:15.910Z,99137.97
2022-12-31T22:15:39.190Z,99144.56
2022-12-31T22:19:03.673Z,99145.25
2022-12-31T22:22:25.506Z,99131.38
2022-12-31T22:25:47.425Z,99125.34
2022-12-31T22:29:09.314Z,99130.19
2022-12-31T22:32:32.839Z,99112.19
2022-12-31T22:35:59.515Z,99122.97
2022-12-31T22:39:44.004Z,99116.94
2022-12-31T22:43:03.132Z,99144.91
2022-12-31T22:46:26.985Z,99162.09
2022-12-31T22:49:50.600Z,99145.69
2022-12-31T22:53:13.594Z,99134.13
2022-12-31T22:56:35.690Z,99120.31
2022-12-31T22:59:57.663Z,99124.28
2022-12-31T23:03:19.968Z,99125.13
2022-12-31T23:06:45.743Z,99119.88
2022-12-31T23:10:26.327Z,99125.00
2022-12-31T23:14:06.041Z,99126.59
2022-12-31T23:17:46.274Z,99131.63
2022-12-31T23:21:28.333Z,99130.72
2022-12-31T23:24:51.617Z,99113.41
2022-12-31T23:28:17.734Z,99128.81
2022-12-31T23:31:40.517Z,99132.31
2022-12-31T23:35:09.402Z,99121.88
2022-12-31T23:38:31.726Z,99115.00
2022-12-31T23:41:55.221Z,99121.72
2022-12-31T23:45:17.541Z,99120.94
2022-12-31T23:48:40.030Z,99145.81
2022-12-31T23:52:02.364Z,99133.69
2022-12-31T23:55:24.409Z,99133.59
2022-12-31T23:58:47.893Z,99137.13
